Time;durP1;ratioP1;P1;durP2;ratioP2;P2;SDS_P1;SDS_P2;PMS_P1;PMS_P2;Temp;Humidity;BMP_temperature;BMP_pressure;BME280_temperature;BME280_humidity;BME280_pressure;Samples;Min_cycle;Max_cycle;Signal;HPM_P1;HPM_P2
2022/04/20 00:02:10;;;;;;;;;;;8.30;99.90;;;;;;5113718;28;19924;-48
2022/04/20 00:04:36;;;;;;;;;;;8.30;99.90;;;;;;5113773;28;20362;-50
2022/04/20 00:07:01;;;;;;;;;;;8.30;99.90;;;;;;5113642;28;20014;-53
2022/04/20 00:09:27;;;;;;;;;;;8.20;99.90;;;;;;5095739;28;20022;-50
2022/04/20 00:11:52;;;;;;;;;;;8.20;99.90;;;;;;5113897;28;19924;-47
2022/04/20 00:14:18;;;;;;;;;;;8.20;99.90;;;;;;5114608;28;19931;-48
2022/04/20 00:16:43;;;;;;;;;;;8.20;99.90;;;;;;5117825;28;19923;-48
2022/04/20 00:19:08;;;;;;;;;;;8.20;99.90;;;;;;5117623;28;20361;-48
2022/04/20 00:21:34;;;;;;;;;;;8.20;99.90;;;;;;5117711;28;19924;-50
2022/04/20 00:23:59;;;;;;;;;;;8.20;99.90;;;;;;5117622;28;20022;-48
2022/04/20 00:26:25;;;;;;;;;;;8.10;99.90;;;;;;5117707;28;19923;-52
2022/04/20 00:28:51;;;;;;;;;;;8.10;99.90;;;;;;5117600;28;19924;-48
2022/04/20 00:31:16;;;;;;;;;;;8.10;99.90;;;;;;5117672;28;20433;-50
2022/04/20 00:33:42;;;;;;;;;;;8.10;99.90;;;;;;5117434;28;19923;-48
2022/04/20 00:36:09;;;;;;;;;;;8.00;99.90;;;;;;5117609;28;20002;-50
2022/04/20 00:38:34;;;;;;;;;;;8.00;99.90;;;;;;5117295;28;19924;-47
2022/04/20 00:41:00;;;;;;;;;;;8.00;99.90;;;;;;5117497;28;20417;-53
2022/04/20 00:43:28;;;;;;;;;;;8.00;99.90;;;;;;5117178;28;20006;-47
2022/04/20 00:45:53;;;;;;;;;;;8.00;99.90;;;;;;5117672;28;19931;-47
2022/04/20 00:48:20;;;;;;;;;;;7.90;99.90;;;;;;5117240;28;19924;-47
2022/04/20 00:50:45;;;;;;;;;;;7.90;99.90;;;;;;5117128;28;19924;-50
2022/04/20 00:53:11;;;;;;;;;;;7.90;99.90;;;;;;5116980;28;20373;-47
2022/04/20 00:55:36;;;;;;;;;;;7.80;99.90;;;;;;5117228;28;19985;-48
2022/04/20 00:58:02;;;;;;;;;;;7.80;99.90;;;;;;5116877;28;20399;-48
2022/04/20 01:00:31;;;;;;;;;;;7.80;99.90;;;;;;5117192;28;19924;-49
2022/04/20 01:02:56;;;;;;;;;;;7.70;99.90;;;;;;5116995;28;20440;-51
2022/04/20 01:05:22;;;;;;;;;;;7.70;99.90;;;;;;5116911;28;19970;-47
2022/04/20 01:07:49;;;;;;;;;;;7.70;99.90;;;;;;5116968;28;20323;-49
2022/04/20 01:10:15;;;;;;;;;;;7.60;99.90;;;;;;5117092;28;19966;-47
2022/04/20 01:12:43;;;;;;;;;;;7.60;99.90;;;;;;5116814;28;19923;-48
2022/04/20 01:15:08;;;;;;;;;;;7.60;99.90;;;;;;5116871;28;20396;-48
2022/04/20 01:17:34;;;;;;;;;;;7.60;99.90;;;;;;5116876;28;19973;-47
2022/04/20 01:19:59;;;;;;;;;;;7.60;99.90;;;;;;5116596;28;19971;-50
2022/04/20 01:22:25;;;;;;;;;;;7.60;99.90;;;;;;5116392;28;19924;-52
2022/04/20 01:24:51;;;;;;;;;;;7.60;99.90;;;;;;5116439;28;20267;-49
2022/04/20 01:27:16;;;;;;;;;;;7.60;99.90;;;;;;5116500;28;19959;-49
2022/04/20 01:29:42;;;;;;;;;;;7.50;99.90;;;;;;5116566;28;20378;-47
2022/04/20 01:32:07;;;;;;;;;;;7.50;99.90;;;;;;5098272;28;19924;-51
2022/04/20 01:34:33;;;;;;;;;;;7.50;99.90;;;;;;5116330;28;20365;-50
2022/04/20 01:36:58;;;;;;;;;;;7.40;99.90;;;;;;5116365;28;20015;-49
2022/04/20 01:39:24;;;;;;;;;;;7.40;99.90;;;;;;5116063;28;19977;-50
2022/04/20 01:41:49;;;;;;;;;;;7.40;99.90;;;;;;5116289;28;19923;-48
2022/04/20 01:44:15;;;;;;;;;;;7.40;99.90;;;;;;5116211;28;19924;-48
2022/04/20 01:46:40;;;;;;;;;;;7.40;99.90;;;;;;5116464;28;19924;-49
2022/04/20 01:49:06;;;;;;;;;;;7.40;99.90;;;;;;5116073;28;20435;-49
2022/04/20 01:51:46;;;;;;;;;;;7.30;99.90;;;;;;5115787;28;19928;-51
2022/04/20 01:54:12;;;;;;;;;;;7.30;99.90;;;;;;5115902;28;19945;-47
2022/04/20 01:56:38;;;;;;;;;;;7.30;99.90;;;;;;5115977;28;19924;-47
2022/04/20 01:59:03;;;;;;;;;;;7.20;99.90;;;;;;5115792;28;19923;-48
2022/04/20 02:04:13;;;;;;;;;;;7.20;99.90;;;;;;5115556;28;20380;-50
2022/04/20 02:06:39;;;;;;;;;;;7.10;99.90;;;;;;5115622;28;20006;-49
2022/04/20 02:09:04;;;;;;;;;;;7.10;99.90;;;;;;5115720;28;19967;-49
2022/04/20 02:11:30;;;;;;;;;;;7.10;99.90;;;;;;5115596;28;19928;-49
2022/04/20 02:13:55;;;;;;;;;;;7.00;99.90;;;;;;5115486;28;20014;-47
2022/04/20 02:16:21;;;;;;;;;;;7.00;99.90;;;;;;5115581;28;20438;-46
2022/04/20 02:18:47;;;;;;;;;;;7.00;99.90;;;;;;5115218;28;20449;-48
2022/04/20 02:21:12;;;;;;;;;;;7.00;99.90;;;;;;5115586;28;20266;-47
2022/04/20 02:23:38;;;;;;;;;;;7.00;99.90;;;;;;5115549;28;19924;-47
2022/04/20 02:26:03;;;;;;;;;;;6.90;99.90;;;;;;5115306;28;20397;-49
2022/04/20 02:28:29;;;;;;;;;;;6.90;99.90;;;;;;5115246;28;19924;-46
2022/04/20 02:30:54;;;;;;;;;;;6.90;99.90;;;;;;5115137;28;20453;-48
2022/04/20 02:33:19;;;;;;;;;;;6.90;99.90;;;;;;5115561;28;19923;-47
2022/04/20 02:35:45;;;;;;;;;;;6.90;99.90;;;;;;5114986;28;19930;-50
2022/04/20 02:38:11;;;;;;;;;;;6.90;99.90;;;;;;5114416;28;19924;-47
2022/04/20 02:40:40;;;;;;;;;;;6.80;99.90;;;;;;5115135;28;19930;-47
2022/04/20 02:43:05;;;;;;;;;;;6.80;99.90;;;;;;5114958;28;19924;-47
2022/04/20 02:45:31;;;;;;;;;;;6.80;99.90;;;;;;5114904;28;19932;-49
2022/04/20 02:47:56;;;;;;;;;;;6.80;99.90;;;;;;5114631;28;20399;-46
2022/04/20 02:50:22;;;;;;;;;;;6.70;99.90;;;;;;5114988;28;20385;-47
2022/04/20 02:52:47;;;;;;;;;;;6.70;99.90;;;;;;5114887;28;19949;-47
2022/04/20 02:55:13;;;;;;;;;;;6.70;99.90;;;;;;5114853;28;19948;-50
2022/04/20 02:57:38;;;;;;;;;;;6.70;99.90;;;;;;5114791;28;19931;-48
2022/04/20 03:00:04;;;;;;;;;;;6.70;99.90;;;;;;5114595;28;20008;-48
2022/04/20 03:02:31;;;;;;;;;;;6.70;99.90;;;;;;5114620;28;19931;-49
2022/04/20 03:04:56;;;;;;;;;;;6.70;99.90;;;;;;5114759;28;20427;-49
2022/04/20 03:07:22;;;;;;;;;;;6.60;99.90;;;;;;5114888;28;19928;-49
2022/04/20 03:09:48;;;;;;;;;;;6.60;99.90;;;;;;5114837;28;19924;-48
2022/04/20 03:12:13;;;;;;;;;;;6.60;99.90;;;;;;5114989;28;20417;-48
2022/04/20 03:14:39;;;;;;;;;;;6.60;99.90;;;;;;5114306;28;19928;-50
2022/04/20 03:17:04;;;;;;;;;;;6.50;99.90;;;;;;5114117;28;19924;-47
2022/04/20 03:19:30;;;;;;;;;;;6.60;99.90;;;;;;5095933;28;19924;-48
2022/04/20 03:21:55;;;;;;;;;;;6.50;99.90;;;;;;5114314;28;19963;-47
2022/04/20 03:24:21;;;;;;;;;;;6.50;99.90;;;;;;5114336;28;19924;-48
2022/04/20 03:26:46;;;;;;;;;;;6.50;99.90;;;;;;5114344;28;19924;-47
2022/04/20 03:29:12;;;;;;;;;;;6.50;99.90;;;;;;5114141;28;19923;-51
2022/04/20 03:31:38;;;;;;;;;;;6.50;99.90;;;;;;5113911;28;20338;-47
2022/04/20 03:34:04;;;;;;;;;;;6.40;99.90;;;;;;5114319;28;19976;-52
2022/04/20 03:36:30;;;;;;;;;;;6.40;99.90;;;;;;5114335;28;20019;-48
2022/04/20 03:38:56;;;;;;;;;;;6.40;99.90;;;;;;5114090;28;19924;-48
2022/04/20 03:41:22;;;;;;;;;;;6.30;99.90;;;;;;5113946;28;19946;-50
2022/04/20 03:43:50;;;;;;;;;;;6.30;99.90;;;;;;5113889;28;20024;-46
2022/04/20 03:46:16;;;;;;;;;;;6.30;99.90;;;;;;5113749;28;19924;-50
2022/04/20 03:48:42;;;;;;;;;;;6.20;99.90;;;;;;5113074;28;20065;-49
2022/04/20 03:51:07;;;;;;;;;;;6.20;99.90;;;;;;5113693;28;20381;-50
2022/04/20 03:53:33;;;;;;;;;;;6.10;99.90;;;;;;5113768;28;19924;-48
2022/04/20 03:55:58;;;;;;;;;;;6.10;99.90;;;;;;5113785;28;20343;-49
2022/04/20 03:58:24;;;;;;;;;;;6.10;99.90;;;;;;5113834;28;19924;-48
2022/04/20 04:00:51;;;;;;;;;;;6.10;99.90;;;;;;5095671;28;19970;-48
2022/04/20 04:03:17;;;;;;;;;;;6.10;99.90;;;;;;5113791;28;19931;-48
2022/04/20 04:05:43;;;;;;;;;;;6.10;99.90;;;;;;5113923;28;19996;-47
2022/04/20 04:08:09;;;;;;;;;;;6.00;99.90;;;;;;5113612;28;20008;-49
2022/04/20 04:10:34;;;;;;;;;;;6.00;99.90;;;;;;5095607;28;19924;-47
2022/04/20 04:13:00;;;;;;;;;;;6.00;99.90;;;;;;5113439;28;19993;-46
2022/04/20 04:15:25;;;;;;;;;;;6.00;99.90;;;;;;5113528;28;19924;-46
2022/04/20 04:17:54;;;;;;;;;;;6.00;99.90;;;;;;5113691;28;20297;-48
2022/04/20 04:20:21;;;;;;;;;;;5.90;99.90;;;;;;5113555;28;19924;-46
2022/04/20 04:22:47;;;;;;;;;;;5.90;99.90;;;;;;5113698;28;20010;-50
2022/04/20 04:25:12;;;;;;;;;;;5.90;99.90;;;;;;5113542;28;19971;-52
2022/04/20 04:27:37;;;;;;;;;;;5.90;99.90;;;;;;5095434;28;19924;-47
2022/04/20 04:30:04;;;;;;;;;;;5.90;99.90;;;;;;5113299;28;20454;-50
2022/04/20 04:32:29;;;;;;;;;;;5.90;99.90;;;;;;5113357;28;19924;-48
2022/04/20 04:34:54;;;;;;;;;;;5.90;99.90;;;;;;5095201;28;19923;-49
2022/04/20 04:37:20;;;;;;;;;;;5.90;99.90;;;;;;5113424;28;19924;-48
2022/04/20 04:39:46;;;;;;;;;;;5.80;99.90;;;;;;5113217;28;19931;-49
2022/04/20 04:42:11;;;;;;;;;;;5.80;99.90;;;;;;5113390;28;19923;-48
2022/04/20 04:44:37;;;;;;;;;;;5.80;99.90;;;;;;5113140;28;20373;-47
2022/04/20 04:49:47;;;;;;;;;;;5.80;99.90;;;;;;5113365;28;19924;-47
2022/04/20 04:52:13;;;;;;;;;;;5.80;99.90;;;;;;5094861;28;19924;-47
2022/04/20 04:54:40;;;;;;;;;;;5.80;99.90;;;;;;5113344;28;19924;-47
2022/04/20 04:57:07;;;;;;;;;;;5.80;99.90;;;;;;5113078;28;19923;-49
2022/04/20 04:59:33;;;;;;;;;;;5.80;99.90;;;;;;5113015;28;20369;-47
2022/04/20 05:01:59;;;;;;;;;;;5.80;99.90;;;;;;5116922;28;19924;-47
2022/04/20 05:04:24;;;;;;;;;;;5.80;99.90;;;;;;5117064;28;19977;-49
2022/04/20 05:06:50;;;;;;;;;;;5.80;99.90;;;;;;5116693;28;19923;-49
2022/04/20 05:09:15;;;;;;;;;;;5.80;99.90;;;;;;5116880;28;19966;-46
2022/04/20 05:11:41;;;;;;;;;;;5.90;99.90;;;;;;5098449;28;20370;-48
2022/04/20 05:14:06;;;;;;;;;;;6.00;99.90;;;;;;5116789;28;19924;-46
2022/04/20 05:16:31;;;;;;;;;;;5.90;99.90;;;;;;5116785;28;20397;-47
2022/04/20 05:18:57;;;;;;;;;;;6.00;99.90;;;;;;5116668;28;19955;-47
2022/04/20 05:21:23;;;;;;;;;;;6.00;99.90;;;;;;5116508;28;19930;-47
2022/04/20 05:23:48;;;;;;;;;;;6.10;99.90;;;;;;5116411;28;19924;-48
2022/04/20 05:26:14;;;;;;;;;;;6.10;99.90;;;;;;5116406;28;19924;-48
2022/04/20 05:28:39;;;;;;;;;;;6.20;99.90;;;;;;5098058;28;19976;-50
2022/04/20 05:31:05;;;;;;;;;;;6.20;99.90;;;;;;5116438;28;19924;-47
2022/04/20 05:33:30;;;;;;;;;;;6.20;99.90;;;;;;5116391;28;19931;-47
2022/04/20 05:35:55;;;;;;;;;;;6.30;99.90;;;;;;5116376;28;20417;-52
2022/04/20 05:43:49;;;;;;;;;;;7.20;99.90;;;;;;5116391;28;19982;-49
2022/04/20 05:46:14;;;;;;;;;;;8.20;99.90;;;;;;5116239;28;20366;-48
2022/04/20 05:48:40;;;;;;;;;;;9.10;99.90;;;;;;5116051;28;19930;-50
2022/04/20 05:51:07;;;;;;;;;;;9.60;99.90;;;;;;5115694;28;19928;-49
2022/04/20 05:53:32;;;;;;;;;;;10.30;99.90;;;;;;5116025;28;19946;-49
2022/04/20 05:55:58;;;;;;;;;;;10.70;99.90;;;;;;5116262;28;20299;-47
2022/04/20 05:58:23;;;;;;;;;;;10.80;99.90;;;;;;5115875;28;19947;-48
2022/04/20 06:00:49;;;;;;;;;;;11.10;99.90;;;;;;5115897;28;20400;-50
2022/04/20 06:03:14;;;;;;;;;;;11.20;99.90;;;;;;5115765;28;19923;-46
2022/04/20 06:05:41;;;;;;;;;;;11.70;99.90;;;;;;5115723;28;19924;-49
2022/04/20 06:08:08;;;;;;;;;;;11.80;99.90;;;;;;5115939;28;19947;-48
2022/04/20 06:10:33;;;;;;;;;;;12.20;98.40;;;;;;5115760;28;19988;-49
2022/04/20 06:12:59;;;;;;;;;;;12.40;97.00;;;;;;5096766;28;19962;-47
2022/04/20 06:15:24;;;;;;;;;;;12.60;96.30;;;;;;5115547;28;19924;-49
2022/04/20 06:17:50;;;;;;;;;;;12.70;94.70;;;;;;5115598;28;19984;-50
2022/04/20 06:20:16;;;;;;;;;;;12.60;94.00;;;;;;5115302;28;20414;-49
2022/04/20 06:22:41;;;;;;;;;;;12.90;92.90;;;;;;5115585;28;19966;-49
2022/04/20 06:25:08;;;;;;;;;;;13.40;91.80;;;;;;5115386;28;20045;-49
2022/04/20 06:27:34;;;;;;;;;;;13.80;91.30;;;;;;5115316;28;20403;-47
2022/04/20 06:29:59;;;;;;;;;;;13.20;89.60;;;;;;5097071;28;19924;-48
2022/04/20 06:32:25;;;;;;;;;;;13.30;89.80;;;;;;5115158;28;19931;-50
2022/04/20 06:34:51;;;;;;;;;;;13.50;86.40;;;;;;5115177;28;20335;-48
2022/04/20 06:37:18;;;;;;;;;;;13.90;87.00;;;;;;5115269;28;19935;-48
2022/04/20 06:39:43;;;;;;;;;;;13.70;82.10;;;;;;5115208;28;19927;-50
2022/04/20 06:42:09;;;;;;;;;;;13.90;82.00;;;;;;5115024;28;20335;-51
2022/04/20 06:44:34;;;;;;;;;;;13.80;80.70;;;;;;5115169;28;19930;-47
2022/04/20 06:47:00;;;;;;;;;;;13.40;81.50;;;;;;5114978;28;19923;-49
2022/04/20 06:49:25;;;;;;;;;;;13.30;83.10;;;;;;5114778;28;20385;-49
2022/04/20 07:00:03;;;;;;;;;;;13.00;83.10;;;;;;5114686;28;20458;-49
2022/04/20 07:02:29;;;;;;;;;;;13.20;82.70;;;;;;5114727;28;20005;-48
2022/04/20 07:04:55;;;;;;;;;;;13.30;81.30;;;;;;5114721;28;19966;-49
2022/04/20 07:07:20;;;;;;;;;;;13.30;80.30;;;;;;5079619;28;20335;-48
2022/04/20 07:09:46;;;;;;;;;;;13.30;81.20;;;;;;5114448;28;19969;-47
2022/04/20 07:12:12;;;;;;;;;;;13.40;81.90;;;;;;5114493;28;19927;-48
2022/04/20 07:14:38;;;;;;;;;;;13.70;80.40;;;;;;5114226;28;19962;-47
2022/04/20 07:17:04;;;;;;;;;;;14.00;77.60;;;;;;5114302;28;19923;-48
2022/04/20 07:19:30;;;;;;;;;;;13.70;78.50;;;;;;5096464;28;19927;-48
2022/04/20 07:21:55;;;;;;;;;;;14.20;79.60;;;;;;5114426;28;20422;-48
2022/04/20 07:24:21;;;;;;;;;;;13.50;76.90;;;;;;5114106;28;19958;-48
2022/04/20 07:26:46;;;;;;;;;;;13.00;79.90;;;;;;5114221;28;19968;-53
2022/04/20 07:29:12;;;;;;;;;;;12.50;82.80;;;;;;5113920;28;19931;-48
2022/04/20 07:31:37;;;;;;;;;;;12.10;84.50;;;;;;5114335;28;19924;-48
2022/04/20 07:34:03;;;;;;;;;;;11.90;87.40;;;;;;5114224;28;20304;-52
2022/04/20 07:36:28;;;;;;;;;;;11.50;90.00;;;;;;5114233;28;19924;-48
2022/04/20 07:38:53;;;;;;;;;;;11.70;91.30;;;;;;5113958;28;19977;-49
2022/04/20 07:41:19;;;;;;;;;;;11.50;91.30;;;;;;5114128;28;20339;-48
2022/04/20 07:43:44;;;;;;;;;;;11.50;92.50;;;;;;5114316;28;19923;-47
2022/04/20 07:46:12;;;;;;;;;;;11.80;92.90;;;;;;5114076;28;20018;-48
2022/04/20 07:48:38;;;;;;;;;;;11.80;91.50;;;;;;5113945;28;19924;-50
2022/04/20 07:51:03;;;;;;;;;;;11.90;91.00;;;;;;5114131;28;19930;-49
2022/04/20 07:53:29;;;;;;;;;;;12.00;90.90;;;;;;5113778;28;19924;-51
2022/04/20 07:55:55;;;;;;;;;;;12.00;89.40;;;;;;5113847;28;19977;-49
2022/04/20 07:58:21;;;;;;;;;;;11.90;88.00;;;;;;5113521;28;19928;-49
2022/04/20 08:00:49;;;;;;;;;;;12.00;89.00;;;;;;5113959;28;19924;-48
2022/04/20 08:03:16;;;;;;;;;;;11.90;87.50;;;;;;5113896;28;19924;-46
2022/04/20 08:05:42;;;;;;;;;;;12.20;87.50;;;;;;5113755;28;19982;-48
2022/04/20 08:08:08;;;;;;;;;;;12.10;84.80;;;;;;5113909;28;19938;-49
2022/04/20 08:10:34;;;;;;;;;;;12.40;85.30;;;;;;5113582;28;19924;-48
2022/04/20 08:12:59;;;;;;;;;;;12.30;83.10;;;;;;5113491;28;20059;-49
2022/04/20 08:15:25;;;;;;;;;;;12.70;85.80;;;;;;5113743;28;20068;-49
2022/04/20 08:17:50;;;;;;;;;;;12.70;82.20;;;;;;5095631;28;19923;-51
2022/04/20 08:20:16;;;;;;;;;;;12.80;77.30;;;;;;5113536;28;19931;-49
2022/04/20 08:22:42;;;;;;;;;;;12.70;74.60;;;;;;5113568;28;20385;-47
2022/04/20 08:25:08;;;;;;;;;;;12.90;75.60;;;;;;5113507;28;19931;-51
2022/04/20 08:27:34;;;;;;;;;;;12.90;74.10;;;;;;5113371;28;20278;-52
2022/04/20 08:29:59;;;;;;;;;;;13.00;74.60;;;;;;5113649;28;19923;-49
2022/04/20 08:32:25;;;;;;;;;;;13.00;74.10;;;;;;5113625;28;20018;-48
2022/04/20 08:34:51;;;;;;;;;;;13.00;73.80;;;;;;5113850;28;19924;-52
2022/04/20 08:37:16;;;;;;;;;;;12.90;74.90;;;;;;5117518;28;20385;-48
2022/04/20 08:39:42;;;;;;;;;;;13.00;75.20;;;;;;5117290;28;20475;-49
2022/04/20 08:42:09;;;;;;;;;;;13.10;74.30;;;;;;5117261;28;20377;-47
2022/04/20 08:44:38;;;;;;;;;;;13.40;75.50;;;;;;5117515;28;19924;-50
2022/04/20 08:47:07;;;;;;;;;;;13.40;74.40;;;;;;5117421;28;19923;-49
2022/04/20 08:49:33;;;;;;;;;;;13.30;75.00;;;;;;5117310;28;19924;-48
2022/04/20 08:54:44;;;;;;;;;;;13.30;75.30;;;;;;5117286;28;20025;-52
2022/04/20 08:57:20;;;;;;;;;;;13.40;75.20;;;;;;5117357;28;20377;-50
2022/04/20 08:59:48;;;;;;;;;;;13.60;74.40;;;;;;5117067;28;19991;-49
2022/04/20 09:02:14;;;;;;;;;;;13.90;76.50;;;;;;5116994;28;20006;-48
2022/04/20 09:04:40;;;;;;;;;;;13.90;75.50;;;;;;5117042;28;19951;-50
2022/04/20 09:07:09;;;;;;;;;;;14.10;72.10;;;;;;5116895;28;20036;-47
2022/04/20 09:09:35;;;;;;;;;;;14.10;71.70;;;;;;5116809;28;20373;-48
2022/04/20 09:12:02;;;;;;;;;;;14.10;71.80;;;;;;5116956;28;19930;-47
2022/04/20 09:14:30;;;;;;;;;;;14.40;71.40;;;;;;5117154;28;20305;-48
2022/04/20 09:16:56;;;;;;;;;;;14.20;68.70;;;;;;5116872;28;20029;-47
2022/04/20 09:19:25;;;;;;;;;;;14.30;68.90;;;;;;5116549;28;19966;-48
2022/04/20 09:21:51;;;;;;;;;;;14.10;67.90;;;;;;5116798;28;19931;-52
2022/04/20 09:24:17;;;;;;;;;;;14.20;70.20;;;;;;5116718;28;19924;-48
2022/04/20 09:26:51;;;;;;;;;;;14.50;67.70;;;;;;5116613;28;20010;-49
2022/04/20 09:29:17;;;;;;;;;;;14.70;67.10;;;;;;5116718;28;19923;-50
2022/04/20 09:31:43;;;;;;;;;;;15.00;66.50;;;;;;5116426;28;19947;-50
2022/04/20 09:34:08;;;;;;;;;;;14.80;63.30;;;;;;5116374;28;19973;-52
2022/04/20 09:36:45;;;;;;;;;;;15.10;64.10;;;;;;5098008;28;19986;-48
2022/04/20 09:39:11;;;;;;;;;;;14.80;61.00;;;;;;5116383;28;19930;-49
2022/04/20 09:41:59;;;;;;;;;;;15.00;60.50;;;;;;5116393;28;20002;-47
2022/04/20 09:44:25;;;;;;;;;;;14.90;61.60;;;;;;5116239;28;20001;-49
2022/04/20 09:49:57;;;;;;;;;;;15.00;62.50;;;;;;5116537;28;20415;-52
2022/04/20 09:52:34;;;;;;;;;;;14.90;59.70;;;;;;5115760;28;19927;-49
2022/04/20 09:55:00;;;;;;;;;;;15.20;60.70;;;;;;5116519;28;19920;-49
2022/04/20 09:57:25;;;;;;;;;;;15.30;58.20;;;;;;5116225;28;19931;-51
2022/04/20 09:59:54;;;;;;;;;;;15.30;57.30;;;;;;5115941;28;19924;-51
2022/04/20 10:02:19;;;;;;;;;;;15.40;56.20;;;;;;5115967;28;19931;-48
2022/04/20 10:04:47;;;;;;;;;;;15.50;56.10;;;;;;5115869;28;19924;-49
2022/04/20 10:07:13;;;;;;;;;;;15.60;56.90;;;;;;5115783;28;19928;-49
2022/04/20 10:09:39;;;;;;;;;;;15.50;55.90;;;;;;5115544;28;19924;-48
2022/04/20 10:12:05;;;;;;;;;;;15.60;56.20;;;;;;5115801;28;19931;-48
2022/04/20 10:17:20;;;;;;;;;;;15.60;54.30;;;;;;5115661;28;19931;-49
2022/04/20 10:19:47;;;;;;;;;;;15.60;55.20;;;;;;5115524;28;20365;-49
2022/04/20 10:22:15;;;;;;;;;;;15.60;53.20;;;;;;5115541;28;20384;-48
2022/04/20 10:24:42;;;;;;;;;;;15.90;55.10;;;;;;5115516;28;19955;-48
2022/04/20 10:27:40;;;;;;;;;;;15.90;52.90;;;;;;5115540;28;19924;-49
2022/04/20 10:30:09;;;;;;;;;;;16.00;51.80;;;;;;5032511;28;20003;-50
2022/04/20 10:32:47;;;;;;;;;;;16.10;52.60;;;;;;5015915;28;19929;-48
2022/04/20 10:35:13;;;;;;;;;;;16.10;51.90;;;;;;5032572;28;19932;-48
2022/04/20 10:37:40;;;;;;;;;;;16.30;52.10;;;;;;5032543;28;19925;-49
2022/04/20 10:40:26;;;;;;;;;;;16.40;50.50;;;;;;5032347;28;19925;-47
2022/04/20 10:43:10;;;;;;;;;;;16.20;50.90;;;;;;5032279;28;20391;-50
2022/04/20 10:45:35;;;;;;;;;;;16.50;51.90;;;;;;5032258;28;20398;-49
2022/04/20 10:48:01;;;;;;;;;;;16.60;51.80;;;;;;5031984;28;19925;-49
2022/04/20 10:50:27;;;;;;;;;;;16.30;50.30;;;;;;5032144;28;20407;-48
2022/04/20 10:53:04;;;;;;;;;;;16.60;50.80;;;;;;5031807;28;19957;-49
2022/04/20 10:55:30;;;;;;;;;;;16.30;50.50;;;;;;5031971;28;19925;-48
2022/04/20 10:57:58;;;;;;;;;;;16.20;50.40;;;;;;5031431;28;20303;-49
2022/04/20 11:00:25;;;;;;;;;;;16.30;51.20;;;;;;5031838;28;19925;-50
2022/04/20 11:03:04;;;;;;;;;;;16.40;51.60;;;;;;5032003;28;19925;-48
2022/04/20 11:05:29;;;;;;;;;;;16.70;51.90;;;;;;5066721;28;20378;-48
2022/04/20 11:08:02;;;;;;;;;;;16.60;50.70;;;;;;5114298;28;19924;-48
2022/04/20 11:10:28;;;;;;;;;;;16.50;51.60;;;;;;5114678;28;19930;-50
2022/04/20 11:21:06;;;;;;;;;;;16.90;51.30;;;;;;5114409;28;19968;-48
2022/04/20 11:23:54;;;;;;;;;;;16.90;52.20;;;;;;5114634;28;19923;-49
2022/04/20 11:26:21;;;;;;;;;;;17.10;51.30;;;;;;5114319;28;19923;-51
2022/04/20 11:28:47;;;;;;;;;;;16.90;51.30;;;;;;5114101;28;19977;-49
2022/04/20 11:31:12;;;;;;;;;;;16.90;51.40;;;;;;5114222;28;19927;-48
2022/04/20 11:33:38;;;;;;;;;;;16.90;51.90;;;;;;5114218;28;20267;-52
2022/04/20 11:36:04;;;;;;;;;;;16.90;50.90;;;;;;5114184;28;19923;-49
2022/04/20 11:38:42;;;;;;;;;;;17.00;51.60;;;;;;5095749;28;20001;-51
2022/04/20 11:41:09;;;;;;;;;;;17.20;51.60;;;;;;5095650;28;19963;-48
2022/04/20 11:43:36;;;;;;;;;;;17.10;50.70;;;;;;5113978;28;20413;-49
2022/04/20 11:46:02;;;;;;;;;;;17.30;51.60;;;;;;5114140;28;19923;-51
2022/04/20 11:48:28;;;;;;;;;;;17.30;51.90;;;;;;5113962;28;19924;-49
2022/04/20 11:50:58;;;;;;;;;;;17.30;51.40;;;;;;5113700;28;19977;-52
2022/04/20 11:53:30;;;;;;;;;;;17.20;50.60;;;;;;5113882;28;20405;-48
2022/04/20 11:55:56;;;;;;;;;;;17.30;50.00;;;;;;5113803;28;20436;-51
2022/04/20 11:58:21;;;;;;;;;;;17.40;50.50;;;;;;5113881;28;20011;-50
2022/04/20 12:00:47;;;;;;;;;;;17.30;50.00;;;;;;5113847;28;19927;-47
2022/04/20 12:03:12;;;;;;;;;;;17.30;49.40;;;;;;5113823;28;20297;-49
2022/04/20 12:05:38;;;;;;;;;;;17.20;49.90;;;;;;5113843;28;19976;-49
2022/04/20 12:08:03;;;;;;;;;;;17.30;50.30;;;;;;5113752;28;19924;-49
2022/04/20 12:10:31;;;;;;;;;;;17.40;50.60;;;;;;5114880;28;19930;-50
2022/04/20 12:12:56;;;;;;;;;;;17.60;51.40;;;;;;5118046;28;19947;-49
2022/04/20 12:15:22;;;;;;;;;;;17.60;49.60;;;;;;5118057;28;20377;-52
2022/04/20 12:17:48;;;;;;;;;;;17.60;50.50;;;;;;5117660;28;19971;-49
2022/04/20 12:20:14;;;;;;;;;;;17.80;51.10;;;;;;5099595;28;19923;-50
2022/04/20 12:22:39;;;;;;;;;;;17.70;50.40;;;;;;5117941;28;19924;-49
2022/04/20 12:25:09;;;;;;;;;;;17.80;51.10;;;;;;5117519;28;19934;-47
2022/04/20 12:27:51;;;;;;;;;;;17.50;49.10;;;;;;5099690;28;19931;-51
2022/04/20 12:30:33;;;;;;;;;;;17.60;50.00;;;;;;5117842;28;19982;-52
2022/04/20 12:33:04;;;;;;;;;;;17.60;50.10;;;;;;5117653;28;20275;-49
2022/04/20 12:35:30;;;;;;;;;;;17.80;49.70;;;;;;5117590;28;19923;-50
2022/04/20 12:37:56;;;;;;;;;;;17.90;50.60;;;;;;5117775;28;19930;-49
2022/04/20 12:40:25;;;;;;;;;;;18.00;51.20;;;;;;5117400;28;19946;-48
2022/04/20 12:43:00;;;;;;;;;;;18.10;50.60;;;;;;5117468;28;19976;-49
2022/04/20 12:45:26;;;;;;;;;;;18.00;50.00;;;;;;5117493;28;20282;-49
2022/04/20 12:48:01;;;;;;;;;;;17.80;49.60;;;;;;5099255;28;20020;-52
2022/04/20 12:50:33;;;;;;;;;;;17.80;50.10;;;;;;5117348;28;19924;-48
2022/04/20 12:52:59;;;;;;;;;;;17.80;50.00;;;;;;5117226;28;19944;-48
2022/04/20 12:55:33;;;;;;;;;;;17.90;51.50;;;;;;5117195;28;19982;-49
2022/04/20 13:03:37;;;;;;;;;;;17.70;50.20;;;;;;5117062;28;19931;-51
2022/04/20 13:06:06;;;;;;;;;;;17.90;50.80;;;;;;5116950;28;20377;-48
2022/04/20 13:08:32;;;;;;;;;;;17.70;50.70;;;;;;5116782;28;19931;-47
2022/04/20 13:10:58;;;;;;;;;;;18.10;51.90;;;;;;5098770;28;19927;-48
2022/04/20 13:13:26;;;;;;;;;;;18.00;50.80;;;;;;5116744;28;20389;-49
2022/04/20 13:15:52;;;;;;;;;;;18.10;51.30;;;;;;5116854;28;19923;-49
2022/04/20 13:18:18;;;;;;;;;;;18.10;51.40;;;;;;5098519;28;19923;-49
2022/04/20 13:20:43;;;;;;;;;;;18.10;51.70;;;;;;5081204;28;20423;-48
2022/04/20 13:23:09;;;;;;;;;;;18.30;52.40;;;;;;5116665;28;20451;-47
2022/04/20 13:28:18;;;;;;;;;;;18.30;52.60;;;;;;5116698;28;20297;-47
2022/04/20 13:30:46;;;;;;;;;;;18.10;50.60;;;;;;5116518;28;19924;-51
2022/04/20 13:33:13;;;;;;;;;;;18.20;51.80;;;;;;5116406;28;19924;-51
2022/04/20 13:35:39;;;;;;;;;;;18.00;51.00;;;;;;5116159;28;19931;-49
2022/04/20 13:38:09;;;;;;;;;;;17.90;51.80;;;;;;5098293;28;19924;-49
2022/04/20 13:40:36;;;;;;;;;;;17.90;51.70;;;;;;5116382;28;19924;-48
2022/04/20 13:43:02;;;;;;;;;;;18.00;51.90;;;;;;5116298;28;19924;-50
2022/04/20 13:45:28;;;;;;;;;;;17.90;51.70;;;;;;5116139;28;19924;-47
2022/04/20 13:47:53;;;;;;;;;;;18.20;54.50;;;;;;5116147;28;19930;-48
2022/04/20 13:50:19;;;;;;;;;;;18.30;51.80;;;;;;5115902;28;19993;-48
2022/04/20 13:52:45;;;;;;;;;;;18.30;52.40;;;;;;5097594;28;19931;-48
2022/04/20 13:55:11;;;;;;;;;;;18.20;51.50;;;;;;5116192;28;20002;-48
2022/04/20 13:57:36;;;;;;;;;;;18.30;52.90;;;;;;5115935;28;19986;-48
2022/04/20 14:00:05;;;;;;;;;;;18.30;51.90;;;;;;5115878;28;19928;-47
2022/04/20 14:02:31;;;;;;;;;;;18.10;52.20;;;;;;5115819;28;20361;-48
2022/04/20 14:04:56;;;;;;;;;;;18.40;52.50;;;;;;5115722;28;19963;-51
2022/04/20 14:07:22;;;;;;;;;;;18.30;51.70;;;;;;5115909;28;20296;-47
2022/04/20 14:09:48;;;;;;;;;;;18.20;51.60;;;;;;5115590;28;19995;-48
2022/04/20 14:12:14;;;;;;;;;;;18.30;51.90;;;;;;5115783;28;19924;-50
2022/04/20 14:14:39;;;;;;;;;;;18.30;52.10;;;;;;5115825;28;20389;-47
2022/04/20 14:17:04;;;;;;;;;;;18.40;52.00;;;;;;5116086;28;19924;-47
2022/04/20 14:19:30;;;;;;;;;;;18.40;52.10;;;;;;5115644;28;19924;-51
2022/04/20 14:21:57;;;;;;;;;;;18.50;51.30;;;;;;5097466;28;20392;-49
2022/04/20 14:24:23;;;;;;;;;;;18.20;50.60;;;;;;5115582;28;19923;-48
2022/04/20 14:32:19;;;;;;;;;;;18.40;51.50;;;;;;5115167;28;19931;-48
2022/04/20 14:34:46;;;;;;;;;;;18.40;51.50;;;;;;5114972;28;20006;-48
2022/04/20 14:37:13;;;;;;;;;;;18.70;51.40;;;;;;5115295;28;19951;-48
2022/04/20 14:39:39;;;;;;;;;;;18.50;50.50;;;;;;5114972;28;19931;-52
2022/04/20 14:42:05;;;;;;;;;;;18.50;51.50;;;;;;5115018;28;20420;-50
2022/04/20 14:44:31;;;;;;;;;;;18.70;51.50;;;;;;5115108;28;19924;-48
2022/04/20 14:47:00;;;;;;;;;;;18.70;51.00;;;;;;5114791;28;20285;-52
2022/04/20 14:49:26;;;;;;;;;;;18.70;50.60;;;;;;5115055;28;19923;-49
2022/04/20 14:51:52;;;;;;;;;;;18.50;51.00;;;;;;5114575;28;20366;-49
2022/04/20 14:54:17;;;;;;;;;;;18.40;51.00;;;;;;5096771;28;20348;-52
2022/04/20 14:56:43;;;;;;;;;;;18.60;51.90;;;;;;5115013;28;20019;-52
2022/04/20 14:59:08;;;;;;;;;;;18.70;51.10;;;;;;5114692;28;19930;-48
2022/04/20 15:01:35;;;;;;;;;;;18.80;51.10;;;;;;5114872;28;20011;-48
2022/04/20 15:04:02;;;;;;;;;;;18.70;50.10;;;;;;5114608;28;20373;-48
2022/04/20 15:06:27;;;;;;;;;;;18.30;49.90;;;;;;5114738;28;19927;-50
2022/04/20 15:08:53;;;;;;;;;;;18.40;49.90;;;;;;5114472;28;19973;-48